Time;durP1;ratioP1;P1;durP2;ratioP2;P2;SDS_P1;SDS_P2;PMS_P1;PMS_P2;Temp;Humidity;BMP_temperature;BMP_pressure;BME280_temperature;BME280_humidity;BME280_pressure;Samples;Min_cycle;Max_cycle;Signal;HPM_P1;HPM_P2
2023/01/29 00:00:37;;;;;;;0.10;0.10;;;1.00;99.90;;;;;;5060825;28;20218;-81
2023/01/29 00:03:02;;;;;;;0.10;0.10;;;1.10;99.90;;;;;;5060931;28;20179;-80
2023/01/29 00:05:28;;;;;;;0.10;0.10;;;1.10;99.90;;;;;;5061777;28;20222;-81
2023/01/29 00:07:55;;;;;;;0.10;0.10;;;1.00;99.90;;;;;;5063143;28;20418;-80
2023/01/29 00:10:20;;;;;;;0.10;0.10;;;1.00;99.90;;;;;;5059933;28;20204;-81
2023/01/29 00:12:46;;;;;;;0.10;0.10;;;1.10;99.90;;;;;;5061630;28;20282;-80
2023/01/29 00:15:11;;;;;;;0.10;0.10;;;1.10;99.90;;;;;;5059829;28;20214;-80
2023/01/29 00:17:37;;;;;;;0.10;0.10;;;0.90;99.90;;;;;;5060828;28;20226;-81
2023/01/29 00:20:03;;;;;;;0.10;0.10;;;0.90;99.90;;;;;;5060679;28;20815;-81
2023/01/29 00:22:29;;;;;;;0.10;0.10;;;0.90;99.90;;;;;;5061905;28;20723;-81
2023/01/29 00:24:55;;;;;;;0.10;0.10;;;0.90;99.90;;;;;;5060832;28;20186;-81
2023/01/29 00:27:20;;;;;;;0.07;0.07;;;1.00;99.90;;;;;;5061509;28;21054;-81
2023/01/29 00:30:07;;;;;;;0.10;0.10;;;1.00;99.90;;;;;;5060977;28;20243;-80
2023/01/29 00:32:31;;;;;;;0.10;0.10;;;0.90;99.90;;;;;;5061295;28;20679;-80
2023/01/29 00:34:57;;;;;;;0.10;0.10;;;0.90;99.90;;;;;;5059766;28;20187;-79
2023/01/29 00:37:22;;;;;;;0.10;0.10;;;0.70;99.90;;;;;;5061101;28;20245;-81
2023/01/29 00:39:48;;;;;;;0.10;0.10;;;0.60;99.90;;;;;;5060622;28;20298;-79
2023/01/29 00:44:58;;;;;;;0.10;0.10;;;0.80;99.90;;;;;;5061545;28;20225;-80
2023/01/29 00:47:29;;;;;;;0.10;0.10;;;0.80;99.90;;;;;;5063625;28;20266;-81
2023/01/29 00:49:56;;;;;;;0.10;0.10;;;1.00;99.90;;;;;;5065802;28;20206;-80
2023/01/29 00:52:24;;;;;;;0.10;0.10;;;1.20;99.90;;;;;;5062226;28;20282;-80
2023/01/29 00:54:56;;;;;;;0.10;0.10;;;1.10;99.90;;;;;;5064228;28;20192;-81
2023/01/29 00:57:24;;;;;;;0.10;0.10;;;1.10;99.90;;;;;;5059295;28;20200;-81
2023/01/29 00:59:49;;;;;;;0.00;0.00;;;1.20;99.90;;;;;;5062419;28;20617;-81
2023/01/29 01:05:01;;;;;;;0.10;0.10;;;1.10;99.90;;;;;;5064704;28;20186;-81
2023/01/29 01:07:26;;;;;;;0.10;0.10;;;1.40;99.90;;;;;;5062914;28;20178;-80
2023/01/29 01:12:36;;;;;;;0.10;0.10;;;1.60;99.90;;;;;;5063374;28;20190;-80
2023/01/29 01:15:02;;;;;;;0.10;0.10;;;1.70;99.90;;;;;;5062543;28;20184;-79
2023/01/29 01:17:27;;;;;;;0.10;0.10;;;1.50;99.90;;;;;;5063748;28;20207;-81
2023/01/29 01:19:53;;;;;;;0.10;0.10;;;1.50;99.90;;;;;;5064563;28;20248;-80
2023/01/29 01:22:18;;;;;;;0.10;0.10;;;1.60;99.90;;;;;;5063294;28;20226;-81
2023/01/29 01:24:44;;;;;;;0.10;0.10;;;1.50;99.90;;;;;;5064148;28;20769;-81
2023/01/29 01:27:10;;;;;;;0.10;0.10;;;1.50;99.90;;;;;;5061408;28;20180;-80
2023/01/29 01:29:35;;;;;;;0.00;0.00;;;1.50;99.90;;;;;;5062233;28;20234;-81
2023/01/29 01:32:01;;;;;;;0.10;0.10;;;1.40;99.90;;;;;;5062157;28;20193;-80
2023/01/29 01:34:27;;;;;;;0.10;0.10;;;1.60;99.90;;;;;;5063834;28;20275;-81
2023/01/29 01:36:56;;;;;;;0.10;0.10;;;1.70;99.90;;;;;;5061838;28;20184;-81
2023/01/29 01:39:25;;;;;;;0.00;0.00;;;1.80;99.90;;;;;;5062875;28;20273;-80
2023/01/29 01:41:54;;;;;;;0.10;0.10;;;1.90;99.90;;;;;;5061495;28;20665;-81
2023/01/29 01:44:53;;;;;;;0.10;0.10;;;1.90;99.90;;;;;;5062502;28;20236;-81
2023/01/29 01:47:34;;;;;;;0.10;0.10;;;1.90;99.90;;;;;;5062674;28;20176;-81
2023/01/29 01:50:07;;;;;;;0.10;0.10;;;1.90;99.90;;;;;;5061089;28;20234;-81
2023/01/29 01:52:36;;;;;;;0.10;0.10;;;1.80;99.90;;;;;;5060878;28;20589;-80
2023/01/29 01:55:02;;;;;;;0.10;0.10;;;1.80;99.90;;;;;;5060177;28;20222;-81
2023/01/29 01:57:29;;;;;;;0.10;0.10;;;1.80;99.90;;;;;;5070845;28;20323;-81
2023/01/29 02:00:11;;;;;;;0.10;0.10;;;1.80;99.90;;;;;;5058915;28;20215;-79
2023/01/29 02:10:54;;;;;;;0.00;0.00;;;1.90;99.90;;;;;;5061311;28;20197;-80
2023/01/29 02:13:20;;;;;;;0.10;0.10;;;1.90;99.90;;;;;;5059054;28;21398;-81
2023/01/29 02:15:47;;;;;;;0.10;0.10;;;1.90;99.90;;;;;;5060836;28;20178;-80
2023/01/29 02:18:19;;;;;;;0.10;0.10;;;1.80;99.90;;;;;;5059542;28;20218;-80
2023/01/29 02:21:12;;;;;;;0.10;0.10;;;1.40;99.90;;;;;;5058341;28;20200;-80
2023/01/29 02:23:50;;;;;;;0.10;0.10;;;1.50;99.90;;;;;;5060261;28;20180;-80
2023/01/29 02:26:45;;;;;;;0.10;0.10;;;1.40;99.90;;;;;;5060108;28;20229;-80
2023/01/29 02:29:32;;;;;;;0.10;0.10;;;1.20;99.90;;;;;;5059796;28;20636;-81
2023/01/29 02:32:10;;;;;;;0.10;0.10;;;0.90;99.90;;;;;;5052243;28;20192;-80
2023/01/29 02:37:41;;;;;;;0.10;0.10;;;1.10;99.90;;;;;;5062059;28;20671;-80
2023/01/29 02:40:30;;;;;;;0.10;0.10;;;1.00;99.90;;;;;;5058425;28;20299;-80
2023/01/29 02:43:01;;;;;;;0.10;0.10;;;0.80;99.90;;;;;;5059824;28;20666;-79
2023/01/29 02:45:45;;;;;;;0.10;0.10;;;0.90;99.90;;;;;;5059695;28;20193;-80
2023/01/29 02:48:22;;;;;;;0.10;0.10;;;1.10;99.90;;;;;;5068307;28;20202;-80
2023/01/29 02:51:31;;;;;;;0.10;0.10;;;1.20;99.90;;;;;;5058678;28;20644;-81
2023/01/29 02:54:19;;;;;;;0.10;0.10;;;1.30;99.90;;;;;;5043830;28;20694;-80
2023/01/29 02:57:20;;;;;;;0.10;0.10;;;1.00;99.90;;;;;;5057719;28;20240;-80
2023/01/29 02:59:57;;;;;;;0.10;0.10;;;0.80;99.90;;;;;;5059284;28;20262;-81
2023/01/29 03:02:32;;;;;;;0.10;0.10;;;0.70;99.90;;;;;;5059812;28;20593;-81
2023/01/29 03:05:01;;;;;;;0.10;0.10;;;0.90;99.90;;;;;;5060454;28;20179;-80
2023/01/29 03:07:40;;;;;;;0.10;0.10;;;1.10;99.90;;;;;;5059080;28;20636;-80
2023/01/29 03:10:26;;;;;;;0.10;0.10;;;1.00;99.90;;;;;;5059614;28;20208;-80
2023/01/29 03:13:12;;;;;;;0.10;0.10;;;0.80;99.90;;;;;;5060386;28;20184;-81
2023/01/29 03:15:45;;;;;;;0.07;0.07;;;0.80;99.90;;;;;;5059767;28;20184;-81
2023/01/29 03:18:16;;;;;;;0.10;0.10;;;0.80;99.90;;;;;;5059825;28;20237;-80
2023/01/29 03:20:46;;;;;;;0.10;0.10;;;0.80;99.90;;;;;;5057862;28;20264;-81
2023/01/29 03:23:46;;;;;;;0.10;0.10;;;0.80;99.90;;;;;;5059943;28;21795;-81
2023/01/29 03:34:33;;;;;;;0.10;0.10;;;0.70;99.90;;;;;;5061560;28;20230;-80
2023/01/29 03:37:07;;;;;;;0.10;0.10;;;0.80;99.90;;;;;;5059555;28;20183;-79
2023/01/29 03:39:33;;;;;;;0.10;0.10;;;0.80;99.90;;;;;;5061493;28;20227;-80
2023/01/29 03:42:18;;;;;;;0.10;0.10;;;0.80;99.90;;;;;;5060925;28;20189;-80
2023/01/29 03:45:20;;;;;;;0.10;0.10;;;0.80;99.90;;;;;;5060483;28;20200;-80
2023/01/29 03:48:01;;;;;;;0.10;0.10;;;0.60;99.90;;;;;;5060552;28;20221;-80
2023/01/29 03:50:40;;;;;;;0.10;0.10;;;0.50;99.90;;;;;;5059959;28;20209;-80
2023/01/29 03:53:21;;;;;;;0.10;0.10;;;0.30;99.90;;;;;;5060245;28;20185;-80
2023/01/29 03:56:16;;;;;;;0.00;0.00;;;0.40;99.90;;;;;;5060404;28;20229;-80
2023/01/29 03:58:59;;;;;;;0.10;0.10;;;0.40;99.90;;;;;;5061201;28;20578;-80
2023/01/29 04:01:47;;;;;;;0.10;0.10;;;0.50;99.90;;;;;;5060946;28;20241;-80
2023/01/29 04:04:19;;;;;;;0.10;0.10;;;0.70;99.90;;;;;;5051469;28;20244;-80
2023/01/29 04:06:48;;;;;;;0.10;0.10;;;0.70;99.90;;;;;;5059676;28;20747;-81
2023/01/29 04:09:22;;;;;;;0.10;0.10;;;0.80;99.90;;;;;;5060879;28;20552;-80
2023/01/29 04:12:08;;;;;;;0.00;0.00;;;0.80;99.90;;;;;;5060244;28;21026;-80
2023/01/29 04:14:34;;;;;;;0.10;0.10;;;0.70;99.90;;;;;;5060593;28;20187;-80
2023/01/29 04:17:07;;;;;;;0.10;0.10;;;0.60;99.90;;;;;;5058426;28;20281;-81
2023/01/29 04:19:33;;;;;;;0.03;0.03;;;0.50;99.90;;;;;;5059016;28;20580;-80
2023/01/29 04:22:04;;;;;;;0.10;0.10;;;0.30;99.90;;;;;;5059870;28;20275;-80
2023/01/29 04:24:31;;;;;;;0.10;0.10;;;0.20;99.90;;;;;;5063805;28;20193;-80
2023/01/29 04:27:25;;;;;;;0.10;0.10;;;0.20;99.90;;;;;;5062980;28;20274;-80
2023/01/29 04:30:30;;;;;;;0.00;0.00;;;0.30;99.90;;;;;;5065449;28;20212;-79
2023/01/29 04:33:23;;;;;;;0.10;0.10;;;0.30;99.90;;;;;;5052877;28;20209;-80
2023/01/29 04:35:58;;;;;;;0.10;0.10;;;0.20;99.90;;;;;;5061794;28;20179;-80
2023/01/29 04:38:42;;;;;;;0.10;0.10;;;0.10;99.90;;;;;;5062337;28;20207;-80
2023/01/29 04:41:24;;;;;;;0.00;0.00;;;0.00;99.90;;;;;;5062363;28;20188;-79
2023/01/29 04:44:28;;;;;;;0.10;0.10;;;0.10;99.90;;;;;;5063056;28;20179;-81
2023/01/29 04:47:08;;;;;;;0.10;0.10;;;0.20;99.90;;;;;;5062500;28;20277;-80
2023/01/29 04:49:40;;;;;;;0.10;0.10;;;0.00;99.90;;;;;;5063550;28;20768;-80
2023/01/29 04:52:23;;;;;;;0.10;0.10;;;0.00;99.90;;;;;;5061487;28;20171;-80
2023/01/29 04:55:17;;;;;;;0.00;0.00;;;0.20;99.90;;;;;;5062755;28;20191;-81
2023/01/29 04:58:13;;;;;;;0.10;0.10;;;0.00;99.90;;;;;;5047696;28;20197;-80
2023/01/29 05:00:42;;;;;;;0.10;0.10;;;0.10;99.90;;;;;;5064316;28;20222;-80
2023/01/29 05:03:10;;;;;;;0.10;0.10;;;0.10;99.90;;;;;;5063073;28;20189;-80
2023/01/29 05:05:39;;;;;;;0.10;0.10;;;0.10;99.90;;;;;;5064416;28;20177;-80
2023/01/29 05:08:06;;;;;;;0.10;0.10;;;-0.10;99.90;;;;;;5062765;28;20192;-80
2023/01/29 05:10:33;;;;;;;0.10;0.10;;;-0.20;99.90;;;;;;5064180;28;20220;-80
2023/01/29 05:13:02;;;;;;;0.10;0.10;;;0.00;99.90;;;;;;5064130;28;20182;-81
2023/01/29 05:15:54;;;;;;;0.10;0.10;;;0.10;99.90;;;;;;5063752;28;20182;-81
2023/01/29 05:18:19;;;;;;;0.10;0.10;;;0.30;99.90;;;;;;5064683;28;20217;-80
2023/01/29 05:20:46;;;;;;;0.00;0.00;;;0.30;99.90;;;;;;5063368;28;20217;-80
2023/01/29 05:23:20;;;;;;;0.10;0.10;;;0.20;99.90;;;;;;5062741;28;20239;-81
2023/01/29 05:25:48;;;;;;;0.10;0.10;;;0.10;99.90;;;;;;5061946;28;20685;-81
2023/01/29 05:28:16;;;;;;;0.10;0.10;;;0.00;99.90;;;;;;5059154;28;20183;-80
2023/01/29 05:30:44;;;;;;;0.10;0.10;;;0.10;99.90;;;;;;5062895;28;20211;-81
2023/01/29 05:33:22;;;;;;;0.10;0.10;;;0.00;99.90;;;;;;5062457;28;20181;-80
2023/01/29 05:35:49;;;;;;;0.10;0.10;;;0.10;99.90;;;;;;5062724;28;20175;-81
2023/01/29 05:38:16;;;;;;;0.10;0.10;;;0.10;99.90;;;;;;5062546;28;20213;-79
2023/01/29 05:40:42;;;;;;;0.00;0.00;;;0.10;99.90;;;;;;5060781;28;20198;-79
2023/01/29 05:43:15;;;;;;;0.07;0.07;;;0.10;99.90;;;;;;5062966;28;20195;-80
2023/01/29 05:45:40;;;;;;;0.10;0.10;;;-0.10;99.90;;;;;;5062063;28;20170;-80
2023/01/29 05:48:06;;;;;;;0.00;0.00;;;-0.30;99.90;;;;;;5060115;28;20208;-80
2023/01/29 05:50:31;;;;;;;0.10;0.10;;;-0.30;99.90;;;;;;5061514;28;21161;-80
2023/01/29 05:52:59;;;;;;;0.10;0.10;;;-0.50;99.90;;;;;;5061608;28;20220;-80
2023/01/29 05:55:25;;;;;;;0.10;0.10;;;-0.50;99.90;;;;;;5058818;28;20186;-80
2023/01/29 05:57:50;;;;;;;0.10;0.10;;;-0.50;99.90;;;;;;5059901;28;20305;-80
2023/01/29 06:00:16;;;;;;;0.10;0.10;;;-0.50;99.90;;;;;;5061666;28;20311;-80
2023/01/29 06:02:42;;;;;;;0.03;0.03;;;-0.50;99.90;;;;;;5062526;28;20280;-80
2023/01/29 06:05:08;;;;;;;0.10;0.10;;;-0.40;99.90;;;;;;5062626;28;20299;-80
2023/01/29 06:07:33;;;;;;;0.10;0.10;;;-0.30;99.90;;;;;;5061908;28;20189;-80
2023/01/29 06:09:59;;;;;;;0.10;0.10;;;-0.10;99.90;;;;;;5062359;28;20204;-80
2023/01/29 06:12:26;;;;;;;0.10;0.10;;;0.00;99.90;;;;;;5061267;28;20193;-81
2023/01/29 06:14:51;;;;;;;0.07;0.07;;;0.10;99.90;;;;;;5059699;28;20190;-81
2023/01/29 06:17:17;;;;;;;0.10;0.10;;;0.00;99.90;;;;;;5062248;28;20181;-81
2023/01/29 06:19:42;;;;;;;0.10;0.10;;;0.10;99.90;;;;;;5059259;28;20221;-80
2023/01/29 06:22:08;;;;;;;0.10;0.10;;;0.10;99.90;;;;;;5069219;28;20666;-80
2023/01/29 06:24:33;;;;;;;0.10;0.10;;;0.30;99.90;;;;;;5068200;28;20277;-80
2023/01/29 06:26:59;;;;;;;0.00;0.00;;;0.20;99.90;;;;;;5068168;28;20177;-79
2023/01/29 06:29:24;;;;;;;0.10;0.10;;;0.20;99.90;;;;;;5067441;28;20806;-79
2023/01/29 06:31:50;;;;;;;0.00;0.00;;;0.20;99.90;;;;;;5070290;28;20189;-80
2023/01/29 06:34:15;;;;;;;0.00;0.00;;;0.30;99.90;;;;;;5068312;28;20256;-80
2023/01/29 06:36:41;;;;;;;0.10;0.10;;;0.30;99.90;;;;;;5068553;28;20197;-80
2023/01/29 06:39:07;;;;;;;0.10;0.10;;;0.30;99.90;;;;;;5069754;28;20304;-79
2023/01/29 06:41:34;;;;;;;0.10;0.10;;;0.40;99.90;;;;;;5067846;28;20198;-80
2023/01/29 06:43:59;;;;;;;0.10;0.10;;;0.40;99.90;;;;;;5066860;28;20189;-79
2023/01/29 06:46:25;;;;;;;0.10;0.10;;;0.50;99.90;;;;;;5067978;28;20181;-79
2023/01/29 06:48:50;;;;;;;0.00;0.00;;;0.50;99.90;;;;;;5068811;28;20300;-80
2023/01/29 06:51:16;;;;;;;0.10;0.10;;;0.50;99.90;;;;;;5066861;28;20190;-80
2023/01/29 06:53:42;;;;;;;0.10;0.10;;;0.70;99.90;;;;;;5068031;28;20711;-79
2023/01/29 06:56:07;;;;;;;0.10;0.10;;;0.60;99.90;;;;;;5067102;28;20187;-80
2023/01/29 06:58:37;;;;;;;0.10;0.10;;;0.60;99.90;;;;;;5066735;28;20202;-80
2023/01/29 07:01:06;;;;;;;0.10;0.10;;;0.60;99.90;;;;;;5067953;28;20328;-79
2023/01/29 07:03:32;;;;;;;0.10;0.10;;;0.60;99.90;;;;;;5065779;28;20181;-80
2023/01/29 07:05:58;;;;;;;0.10;0.10;;;0.50;99.90;;;;;;5065587;28;20209;-79
2023/01/29 07:08:23;;;;;;;0.00;0.00;;;0.60;99.90;;;;;;5066916;28;20194;-79
2023/01/29 07:10:49;;;;;;;0.10;0.10;;;0.60;99.90;;;;;;5064316;28;20206;-80
2023/01/29 07:13:15;;;;;;;0.10;0.10;;;0.80;99.90;;;;;;5066977;28;20230;-79
2023/01/29 07:15:41;;;;;;;0.10;0.10;;;0.80;99.90;;;;;;5066725;28;20721;-79
2023/01/29 07:18:11;;;;;;;0.10;0.10;;;0.50;99.90;;;;;;5065222;28;20186;-79
2023/01/29 07:20:38;;;;;;;0.10;0.10;;;0.40;99.90;;;;;;5063114;28;20206;-79
2023/01/29 07:23:04;;;;;;;0.10;0.10;;;0.40;99.90;;;;;;5065773;28;20206;-79
2023/01/29 07:25:29;;;;;;;0.10;0.10;;;0.50;99.90;;;;;;5062599;28;20647;-79
2023/01/29 07:27:55;;;;;;;0.10;0.10;;;0.70;99.90;;;;;;5066099;28;20190;-79
2023/01/29 07:30:21;;;;;;;0.10;0.10;;;0.90;99.90;;;;;;5064537;28;20202;-80
2023/01/29 07:32:47;;;;;;;0.10;0.10;;;0.90;99.90;;;;;;5066981;28;20268;-80
2023/01/29 07:35:12;;;;;;;0.10;0.10;;;1.00;99.90;;;;;;5063301;28;21448;-80
2023/01/29 07:37:38;;;;;;;0.03;0.03;;;1.00;99.90;;;;;;5067418;28;20214;-80
2023/01/29 07:40:09;;;;;;;0.00;0.00;;;1.10;99.90;;;;;;5065499;28;20210;-79
2023/01/29 07:42:35;;;;;;;0.00;0.00;;;1.20;99.90;;;;;;5066716;28;20242;-80
2023/01/29 07:45:00;;;;;;;0.10;0.10;;;1.20;99.90;;;;;;5064809;28;20245;-79
2023/01/29 07:47:26;;;;;;;0.10;0.10;;;1.20;99.90;;;;;;5065760;28;20185;-79
2023/01/29 07:49:51;;;;;;;0.10;0.10;;;1.20;99.90;;;;;;5065386;28;20201;-79
2023/01/29 07:52:17;;;;;;;0.10;0.10;;;1.20;99.90;;;;;;5066839;28;20218;-79
2023/01/29 07:54:43;;;;;;;0.10;0.10;;;1.10;99.90;;;;;;5065888;28;20639;-80
2023/01/29 07:57:08;;;;;;;0.10;0.10;;;1.10;99.90;;;;;;5069604;28;20195;-79
2023/01/29 07:59:34;;;;;;;0.10;0.10;;;1.20;99.90;;;;;;5069836;28;20473;-79
2023/01/29 08:01:59;;;;;;;0.10;0.10;;;1.30;99.90;;;;;;5068712;28;20193;-79
2023/01/29 08:04:25;;;;;;;0.07;0.07;;;1.40;99.90;;;;;;5068037;28;20610;-79
2023/01/29 08:06:50;;;;;;;0.10;0.10;;;1.50;99.90;;;;;;5070684;28;20211;-80
2023/01/29 08:09:16;;;;;;;0.10;0.10;;;1.50;99.90;;;;;;5070445;28;20208;-79
2023/01/29 08:11:41;;;;;;;0.00;0.00;;;1.40;99.90;;;;;;5071189;28;20673;-80
2023/01/29 08:14:08;;;;;;;0.10;0.10;;;1.20;99.90;;;;;;5068025;28;20656;-78
2023/01/29 08:16:34;;;;;;;0.00;0.00;;;1.30;99.90;;;;;;5069005;28;21073;-79
2023/01/29 08:19:01;;;;;;;0.10;0.10;;;1.40;99.90;;;;;;5070050;28;20220;-80
2023/01/29 08:21:27;;;;;;;0.00;0.00;;;1.60;99.90;;;;;;5070387;28;20212;-78
2023/01/29 08:23:52;;;;;;;0.10;0.10;;;1.70;99.90;;;;;;5071215;28;20237;-80
2023/01/29 08:26:18;;;;;;;0.10;0.10;;;1.70;99.90;;;;;;5068280;28;20184;-79
2023/01/29 08:28:43;;;;;;;0.10;0.10;;;1.60;99.90;;;;;;5068814;28;20197;-80
2023/01/29 08:31:17;;;;;;;0.00;0.00;;;1.60;99.90;;;;;;5068591;28;20241;-80
2023/01/29 08:33:42;;;;;;;0.00;0.00;;;1.70;99.90;;;;;;5072198;28;20179;-79
2023/01/29 08:36:08;;;;;;;0.10;0.10;;;1.90;99.90;;;;;;5069745;28;20294;-79
2023/01/29 08:38:34;;;;;;;0.10;0.10;;;1.90;99.90;;;;;;5070452;28;20212;-80
2023/01/29 08:41:00;;;;;;;0.10;0.10;;;2.10;99.90;;;;;;5069574;28;20242;-80
2023/01/29 08:43:25;;;;;;;0.10;0.10;;;2.00;99.90;;;;;;5070804;28;20179;-79
2023/01/29 08:45:51;;;;;;;0.10;0.10;;;2.10;99.90;;;;;;5067116;28;20200;-80
2023/01/29 08:48:16;;;;;;;0.10;0.10;;;2.30;99.90;;;;;;5067526;28;20193;-79
2023/01/29 08:50:42;;;;;;;0.10;0.10;;;2.30;99.90;;;;;;5070887;28;20216;-79
2023/01/29 08:53:08;;;;;;;0.10;0.10;;;2.40;99.90;;;;;;5068306;28;20188;-81
2023/01/29 08:55:36;;;;;;;0.00;0.00;;;2.50;99.90;;;;;;5064367;28;20195;-80
2023/01/29 08:58:04;;;;;;;0.00;0.00;;;2.50;99.90;;;;;;5061955;28;20880;-80
2023/01/29 09:00:30;;;;;;;0.10;0.10;;;2.50;99.90;;;;;;5063401;28;20210;-80
2023/01/29 09:02:58;;;;;;;0.10;0.10;;;2.40;99.90;;;;;;5062945;28;20667;-81
2023/01/29 09:05:24;;;;;;;0.10;0.10;;;2.40;99.90;;;;;;5060459;28;20203;-81
2023/01/29 09:07:49;;;;;;;0.10;0.10;;;2.40;99.90;;;;;;5064050;28;20636;-84
2023/01/29 09:10:16;;;;;;;0.10;0.10;;;2.20;99.90;;;;;;5060618;28;20211;-82
2023/01/29 09:12:42;;;;;;;0.03;0.03;;;2.10;99.90;;;;;;5066309;28;20318;-83
2023/01/29 09:15:08;;;;;;;0.10;0.10;;;2.30;99.90;;;;;;5063526;28;21269;-83
2023/01/29 09:17:33;;;;;;;0.10;0.10;;;2.20;99.90;;;;;;5065543;28;20373;-83
2023/01/29 09:20:00;;;;;;;0.10;0.10;;;2.30;99.90;;;;;;5065259;28;20318;-82
2023/01/29 09:22:27;;;;;;;0.10;0.10;;;2.20;99.90;;;;;;5067623;28;20186;-83
2023/01/29 09:24:52;;;;;;;0.10;0.10;;;2.20;99.90;;;;;;5064871;28;20660;-82
2023/01/29 09:27:18;;;;;;;0.10;0.10;;;2.30;99.90;;;;;;5065785;28;20233;-84
2023/01/29 09:29:46;;;;;;;0.10;0.10;;;2.30;99.90;;;;;;5066769;28;20218;-82
2023/01/29 09:32:17;;;;;;;0.10;0.10;;;2.30;99.90;;;;;;5064213;28;20301;-82
2023/01/29 09:34:44;;;;;;;0.00;0.00;;;2.30;99.90;;;;;;5063096;28;20227;-82
2023/01/29 09:37:09;;;;;;;0.10;0.10;;;2.30;99.90;;;;;;5064830;28;20200;-81
2023/01/29 09:39:35;;;;;;;0.10;0.10;;;2.10;99.90;;;;;;5066509;28;20254;-83
2023/01/29 09:42:18;;;;;;;0.10;0.10;;;2.20;99.90;;;;;;5067013;28;20275;-82
2023/01/29 09:44:53;;;;;;;0.10;0.10;;;2.20;99.90;;;;;;5065435;28;20199;-82
2023/01/29 09:47:23;;;;;;;0.00;0.00;;;2.20;99.90;;;;;;5065540;28;20203;-84
2023/01/29 09:49:55;;;;;;;0.10;0.10;;;2.20;99.90;;;;;;5061616;28;20277;-82
2023/01/29 09:52:41;;;;;;;0.10;0.10;;;2.00;99.90;;;;;;5061537;28;20430;-81
2023/01/29 09:55:22;;;;;;;0.10;0.10;;;2.10;99.90;;;;;;5056800;28;20270;-81
2023/01/29 09:58:01;;;;;;;0.07;0.07;;;2.10;99.90;;;;;;5060281;28;20658;-80
2023/01/29 10:00:32;;;;;;;0.10;0.10;;;2.20;99.90;;;;;;5062579;28;20221;-80
2023/01/29 10:03:25;;;;;;;0.10;0.10;;;2.20;99.90;;;;;;5058327;28;20292;-80
2023/01/29 10:06:05;;;;;;;0.10;0.10;;;2.30;99.90;;;;;;5058304;28;20228;-81
2023/01/29 10:08:59;;;;;;;0.10;0.10;;;2.30;99.90;;;;;;5060093;28;20190;-80
2023/01/29 10:11:58;;;;;;;0.10;0.10;;;2.30;99.90;;;;;;5057778;28;20189;-81
2023/01/29 10:15:00;;;;;;;0.00;0.00;;;2.20;99.90;;;;;;5064051;28;20194;-80
2023/01/29 10:17:48;;;;;;;0.10;0.10;;;2.30;99.90;;;;;;5058853;28;20190;-80
2023/01/29 10:20:35;;;;;;;0.10;0.10;;;2.40;99.90;;;;;;5061670;28;20213;-81
2023/01/29 10:23:29;;;;;;;0.10;0.10;;;2.40;99.90;;;;;;5059879;28;20176;-80
2023/01/29 10:25:55;;;;;;;0.10;0.10;;;2.50;99.90;;;;;;5059170;28;20206;-80
2023/01/29 10:28:35;;;;;;;0.10;0.10;;;2.60;99.90;;;;;;5063467;28;20196;-81
2023/01/29 10:31:30;;;;;;;0.10;0.10;;;2.50;99.90;;;;;;5057284;28;20261;-82
2023/01/29 10:34:03;;;;;;;0.10;0.10;;;2.70;99.90;;;;;;5060937;28;20193;-81
2023/01/29 10:36:47;;;;;;;0.10;0.10;;;2.80;99.90;;;;;;5059609;28;20197;-81
2023/01/29 10:39:21;;;;;;;0.10;0.10;;;2.90;99.90;;;;;;5057085;28;20240;-81
2023/01/29 10:42:02;;;;;;;0.10;0.10;;;3.00;99.90;;;;;;5059507;28;20260;-80
2023/01/29 10:44:52;;;;;;;0.10;0.10;;;3.10;99.90;;;;;;5057775;28;20188;-80
2023/01/29 10:47:20;;;;;;;0.10;0.10;;;3.20;99.90;;;;;;5060297;28;20664;-81
2023/01/29 10:50:25;;;;;;;1.70;1.63;;;3.30;99.90;;;;;;5057472;28;20201;-80
2023/01/29 10:53:08;;;;;;;0.10;0.10;;;3.30;99.90;;;;;;5013642;28;20198;-81
2023/01/29 10:55:43;;;;;;;0.10;0.10;;;3.10;99.90;;;;;;5055087;28;20202;-81
2023/01/29 10:58:44;;;;;;;0.10;0.10;;;3.10;99.90;;;;;;5058750;28;20185;-80
2023/01/29 11:01:11;;;;;;;0.10;0.10;;;3.20;99.90;;;;;;5036605;28;20207;-81
2023/01/29 11:03:36;;;;;;;0.10;0.10;;;3.50;99.90;;;;;;5057563;28;20244;-81
2023/01/29 11:06:22;;;;;;;0.10;0.10;;;3.60;99.90;;;;;;5057504;28;20283;-80
2023/01/29 11:09:07;;;;;;;0.10;0.10;;;3.50;99.90;;;;;;5056262;28;20215;-81
2023/01/29 11:11:51;;;;;;;0.10;0.10;;;3.60;99.90;;;;;;5061795;28;20190;-79
2023/01/29 11:14:43;;;;;;;0.10;0.10;;;3.60;99.90;;;;;;5060593;28;20208;-80
2023/01/29 11:17:20;;;;;;;0.10;0.10;;;3.60;99.90;;;;;;5059681;28;20249;-78
2023/01/29 11:19:48;;;;;;;0.10;0.10;;;3.40;99.90;;;;;;5060833;28;20556;-80
2023/01/29 11:22:19;;;;;;;0.10;0.10;;;3.50;99.90;;;;;;5059558;28;20315;-80
2023/01/29 11:24:46;;;;;;;0.10;0.10;;;3.40;99.90;;;;;;5055831;28;20213;-79
2023/01/29 11:27:25;;;;;;;0.10;0.10;;;3.30;99.90;;;;;;5067895;28;20240;-79
2023/01/29 11:29:52;;;;;;;0.10;0.10;;;3.20;99.90;;;;;;5061273;28;20217;-79
2023/01/29 11:32:18;;;;;;;0.10;0.10;;;3.30;99.90;;;;;;5056063;28;20191;-80
2023/01/29 11:34:57;;;;;;;0.10;0.10;;;3.40;99.90;;;;;;5061825;28;20188;-79
2023/01/29 11:37:30;;;;;;;0.10;0.10;;;3.60;99.90;;;;;;5055847;28;20189;-80
2023/01/29 11:39:56;;;;;;;0.10;0.10;;;3.70;99.90;;;;;;5055372;28;20224;-80
2023/01/29 11:42:22;;;;;;;0.10;0.10;;;3.90;99.90;;;;;;5060109;28;20203;-80
2023/01/29 11:44:48;;;;;;;0.10;0.10;;;3.80;99.90;;;;;;5053859;28;20711;-79
2023/01/29 11:47:28;;;;;;;0.10;0.10;;;4.10;99.90;;;;;;5057999;28;20502;-79
2023/01/29 11:50:00;;;;;;;0.10;0.10;;;4.30;99.90;;;;;;5058983;28;20253;-80
2023/01/29 11:52:40;;;;;;;0.10;0.10;;;4.40;99.90;;;;;;5055562;28;20242;-81
2023/01/29 11:55:17;;;;;;;0.10;0.10;;;4.50;99.90;;;;;;5057491;28;20192;-80
2023/01/29 11:57:47;;;;;;;0.10;0.10;;;4.50;99.90;;;;;;5059788;28;20269;-80
2023/01/29 12:00:19;;;;;;;0.10;0.10;;;4.40;99.90;;;;;;5057775;28;20213;-80
2023/01/29 12:03:05;;;;;;;0.10;0.10;;;4.20;99.90;;;;;;5056937;28;20189;-80
2023/01/29 12:05:31;;;;;;;0.10;0.10;;;4.30;99.90;;;;;;5058057;28;20176;-79
2023/01/29 12:08:00;;;;;;;0.10;0.10;;;4.10;99.90;;;;;;5057031;28;20268;-79
2023/01/29 12:10:40;;;;;;;0.10;0.10;;;3.90;99.90;;;;;;5057745;28;20303;-78
2023/01/29 12:13:25;;;;;;;0.10;0.10;;;3.70;99.90;;;;;;5057620;28;21220;-78
2023/01/29 12:16:11;;;;;;;0.00;0.00;;;3.50;99.90;;;;;;5055161;28;20192;-77
2023/01/29 12:18:45;;;;;;;0.00;0.00;;;3.40;99.90;;;;;;5063137;28;20305;-79
2023/01/29 12:21:21;;;;;;;0.10;0.10;;;3.20;99.90;;;;;;5059131;28;20176;-80
2023/01/29 12:24:32;;;;;;;0.10;0.10;;;3.10;99.90;;;;;;5055339;28;20183;-79
2023/01/29 12:27:14;;;;;;;0.10;0.10;;;3.00;99.90;;;;;;5022160;28;20185;-80
2023/01/29 12:29:50;;;;;;;0.10;0.10;;;3.00;99.90;;;;;;5062508;28;21005;-83
2023/01/29 12:32:38;;;;;;;0.10;0.10;;;2.90;99.90;;;;;;5057183;28;20186;-81
2023/01/29 12:35:19;;;;;;;0.00;0.00;;;2.90;99.90;;;;;;5056780;28;20231;-82
2023/01/29 12:37:53;;;;;;;0.10;0.10;;;2.70;99.90;;;;;;5059402;28;20239;-82
2023/01/29 12:40:22;;;;;;;0.10;0.10;;;2.80;99.90;;;;;;5065632;28;20258;-81
2023/01/29 12:42:52;;;;;;;0.10;0.10;;;2.90;99.90;;;;;;5065463;28;20659;-81
2023/01/29 12:45:21;;;;;;;0.10;0.10;;;3.00;99.90;;;;;;5066652;28;20252;-82
2023/01/29 12:47:56;;;;;;;0.10;0.10;;;3.20;99.90;;;;;;5065491;28;20180;-81
2023/01/29 12:50:36;;;;;;;0.10;0.10;;;3.20;99.90;;;;;;5066475;28;20223;-82
2023/01/29 12:53:10;;;;;;;0.10;0.10;;;3.40;99.90;;;;;;5065748;28;20184;-81
2023/01/29 12:55:46;;;;;;;0.10;0.10;;;3.40;99.90;;;;;;5063785;28;20199;-80
2023/01/29 12:58:27;;;;;;;0.10;0.10;;;3.50;99.90;;;;;;5065741;28;20200;-82
2023/01/29 13:00:55;;;;;;;0.10;0.10;;;3.60;99.90;;;;;;5062456;28;20568;-79
2023/01/29 13:03:48;;;;;;;0.10;0.10;;;3.70;99.90;;;;;;5062983;28;20248;-81
2023/01/29 13:06:17;;;;;;;0.10;0.10;;;3.50;99.90;;;;;;5069944;28;20203;-81
2023/01/29 13:08:54;;;;;;;0.10;0.10;;;3.30;99.90;;;;;;5071609;28;20181;-80
2023/01/29 13:11:34;;;;;;;0.07;0.07;;;3.30;99.90;;;;;;5069620;28;20185;-80
2023/01/29 13:14:27;;;;;;;0.10;0.10;;;3.50;99.90;;;;;;5070227;28;20189;-80
2023/01/29 13:17:01;;;;;;;0.10;0.10;;;3.70;99.90;;;;;;5065921;28;20198;-81
2023/01/29 13:19:31;;;;;;;0.10;0.10;;;3.90;99.90;;;;;;5068432;28;20215;-81
2023/01/29 13:22:00;;;;;;;0.10;0.10;;;4.00;99.90;;;;;;5069790;28;20197;-79
2023/01/29 13:24:34;;;;;;;0.10;0.10;;;4.00;99.90;;;;;;5066163;28;20193;-79
2023/01/29 13:27:00;;;;;;;0.10;0.10;;;4.00;99.90;;;;;;5069530;28;20199;-81
2023/01/29 13:29:29;;;;;;;0.10;0.10;;;4.00;99.90;;;;;;5068744;28;20694;-80
2023/01/29 13:31:57;;;;;;;0.10;0.10;;;4.00;99.90;;;;;;5067640;28;20207;-79
2023/01/29 13:34:28;;;;;;;0.10;0.10;;;4.00;99.90;;;;;;5069237;28;20274;-80
2023/01/29 13:37:08;;;;;;;0.10;0.10;;;4.10;99.90;;;;;;5068594;28;20178;-80
2023/01/29 13:39:43;;;;;;;0.10;0.10;;;4.20;99.90;;;;;;5069963;28;20215;-80
2023/01/29 13:42:19;;;;;;;0.10;0.10;;;4.40;99.90;;;;;;5067641;28;20175;-80
2023/01/29 13:44:55;;;;;;;0.10;0.10;;;4.40;99.90;;;;;;5064396;28;20187;-81
2023/01/29 13:47:27;;;;;;;0.10;0.10;;;4.40;99.90;;;;;;5060692;28;20677;-80
2023/01/29 13:50:01;;;;;;;0.10;0.10;;;4.40;99.90;;;;;;5063608;28;20726;-79
2023/01/29 13:52:43;;;;;;;0.00;0.00;;;4.40;99.90;;;;;;5059551;28;20185;-81
2023/01/29 13:55:18;;;;;;;0.10;0.10;;;4.40;99.90;;;;;;5065241;28;20189;-81